sensor_id;sensor_type;location;lat;lon;timestamp;noise_LAeq;noise_LA_min;noise_LA_max;noise_LA01;noise_LA95
64077;Laerm;51039;49.696;10.808;2023-11-22T00:00:13;42.96;41.69;44.03;;
64077;Laerm;51039;49.696;10.808;2023-11-22T00:02:39;42.98;41.67;43.95;;
64077;Laerm;51039;49.696;10.808;2023-11-22T00:05:05;42.98;41.74;44.14;;
64077;Laerm;51039;49.696;10.808;2023-11-22T00:07:32;42.99;41.86;44.42;;
64077;Laerm;51039;49.696;10.808;2023-11-22T00:09:57;42.98;41.80;44.05;;
64077;Laerm;51039;49.696;10.808;2023-11-22T00:12:23;43.00;41.72;44.09;;
64077;Laerm;51039;49.696;10.808;2023-11-22T00:14:50;43.01;41.88;44.16;;
64077;Laerm;51039;49.696;10.808;2023-11-22T00:17:15;43.01;41.75;44.25;;
64077;Laerm;51039;49.696;10.808;2023-11-22T00:19:44;43.00;41.72;44.20;;
64077;Laerm;51039;49.696;10.808;2023-11-22T00:22:10;43.00;41.77;44.18;;
64077;Laerm;51039;49.696;10.808;2023-11-22T00:24:40;42.99;41.62;44.01;;
64077;Laerm;51039;49.696;10.808;2023-11-22T00:27:06;42.99;41.84;44.06;;
64077;Laerm;51039;49.696;10.808;2023-11-22T00:29:31;42.96;41.71;44.08;;
64077;Laerm;51039;49.696;10.808;2023-11-22T00:31:57;42.97;41.79;44.05;;
64077;Laerm;51039;49.696;10.808;2023-11-22T00:34:22;42.96;41.74;44.19;;
64077;Laerm;51039;49.696;10.808;2023-11-22T00:36:48;42.94;41.75;43.96;;
64077;Laerm;51039;49.696;10.808;2023-11-22T00:39:14;42.94;41.83;44.07;;
64077;Laerm;51039;49.696;10.808;2023-11-22T00:41:39;42.92;41.68;44.07;;
64077;Laerm;51039;49.696;10.808;2023-11-22T00:44:05;42.93;41.74;43.99;;
64077;Laerm;51039;49.696;10.808;2023-11-22T00:46:32;42.94;41.81;44.03;;
64077;Laerm;51039;49.696;10.808;2023-11-22T00:48:57;42.93;41.47;44.17;;
64077;Laerm;51039;49.696;10.808;2023-11-22T00:51:23;42.92;41.74;44.04;;
64077;Laerm;51039;49.696;10.808;2023-11-22T00:53:48;42.90;41.71;44.13;;
64077;Laerm;51039;49.696;10.808;2023-11-22T00:56:15;42.87;41.63;44.20;;
64077;Laerm;51039;49.696;10.808;2023-11-22T00:58:40;42.87;41.70;43.96;;
64077;Laerm;51039;49.696;10.808;2023-11-22T01:01:06;42.87;41.63;43.90;;
64077;Laerm;51039;49.696;10.808;2023-11-22T01:03:32;42.88;41.75;44.02;;
64077;Laerm;51039;49.696;10.808;2023-11-22T01:05:57;42.85;41.64;44.06;;
64077;Laerm;51039;49.696;10.808;2023-11-22T01:08:23;42.85;41.37;43.85;;
64077;Laerm;51039;49.696;10.808;2023-11-22T01:10:48;42.84;41.49;43.90;;
64077;Laerm;51039;49.696;10.808;2023-11-22T01:13:14;42.86;41.72;43.99;;
64077;Laerm;51039;49.696;10.808;2023-11-22T01:15:40;42.86;41.58;43.87;;
64077;Laerm;51039;49.696;10.808;2023-11-22T01:18:06;42.87;41.51;44.10;;
64077;Laerm;51039;49.696;10.808;2023-11-22T01:20:31;42.87;41.38;43.89;;
64077;Laerm;51039;49.696;10.808;2023-11-22T01:22:56;42.86;41.53;43.84;;
64077;Laerm;51039;49.696;10.808;2023-11-22T01:25:22;42.86;41.68;43.88;;
64077;Laerm;51039;49.696;10.808;2023-11-22T01:27:47;42.86;41.49;44.03;;
64077;Laerm;51039;49.696;10.808;2023-11-22T01:30:12;42.85;41.60;44.04;;
64077;Laerm;51039;49.696;10.808;2023-11-22T01:32:38;42.82;41.70;43.95;;
64077;Laerm;51039;49.696;10.808;2023-11-22T01:35:04;42.82;41.55;43.93;;
64077;Laerm;51039;49.696;10.808;2023-11-22T01:37:30;42.81;41.65;43.88;;
64077;Laerm;51039;49.696;10.808;2023-11-22T01:39:57;42.80;41.13;43.84;;
64077;Laerm;51039;49.696;10.808;2023-11-22T01:42:23;42.81;41.56;43.95;;
64077;Laerm;51039;49.696;10.808;2023-11-22T01:44:49;42.83;41.59;44.03;;
64077;Laerm;51039;49.696;10.808;2023-11-22T01:47:15;42.84;41.80;44.01;;
64077;Laerm;51039;49.696;10.808;2023-11-22T01:49:40;42.83;41.51;43.88;;
64077;Laerm;51039;49.696;10.808;2023-11-22T01:52:06;42.81;41.59;43.86;;
64077;Laerm;51039;49.696;10.808;2023-11-22T01:54:32;42.83;41.66;43.87;;
64077;Laerm;51039;49.696;10.808;2023-11-22T01:56:58;42.83;41.50;43.99;;
64077;Laerm;51039;49.696;10.808;2023-11-22T01:59:26;42.84;41.61;43.97;;
64077;Laerm;51039;49.696;10.808;2023-11-22T02:01:53;42.85;41.74;43.93;;
64077;Laerm;51039;49.696;10.808;2023-11-22T02:04:18;42.86;41.80;43.96;;
64077;Laerm;51039;49.696;10.808;2023-11-22T02:06:45;42.87;41.75;43.93;;
64077;Laerm;51039;49.696;10.808;2023-11-22T02:09:11;42.88;41.66;43.98;;
64077;Laerm;51039;49.696;10.808;2023-11-22T02:11:41;42.89;41.75;44.23;;
64077;Laerm;51039;49.696;10.808;2023-11-22T02:14:07;42.90;41.74;44.25;;
64077;Laerm;51039;49.696;10.808;2023-11-22T02:16:34;42.91;41.60;44.15;;
64077;Laerm;51039;49.696;10.808;2023-11-22T02:19:00;42.90;41.56;43.86;;
64077;Laerm;51039;49.696;10.808;2023-11-22T02:21:25;42.90;41.72;44.01;;
64077;Laerm;51039;49.696;10.808;2023-11-22T02:23:51;42.90;41.66;44.04;;
64077;Laerm;51039;49.696;10.808;2023-11-22T02:26:16;42.93;41.67;44.24;;
64077;Laerm;51039;49.696;10.808;2023-11-22T02:28:43;42.93;41.86;44.03;;
64077;Laerm;51039;49.696;10.808;2023-11-22T02:31:09;42.93;41.65;44.04;;
64077;Laerm;51039;49.696;10.808;2023-11-22T02:33:34;42.92;41.73;44.03;;
64077;Laerm;51039;49.696;10.808;2023-11-22T02:36:01;42.92;41.74;43.99;;
64077;Laerm;51039;49.696;10.808;2023-11-22T02:38:27;42.92;41.87;44.00;;
64077;Laerm;51039;49.696;10.808;2023-11-22T02:40:53;42.93;41.76;44.31;;
64077;Laerm;51039;49.696;10.808;2023-11-22T02:43:19;42.94;41.55;43.98;;
64077;Laerm;51039;49.696;10.808;2023-11-22T02:45:44;42.95;41.66;44.14;;
64077;Laerm;51039;49.696;10.808;2023-11-22T02:48:09;42.99;41.93;44.30;;
64077;Laerm;51039;49.696;10.808;2023-11-22T02:50:36;42.96;41.93;44.03;;
64077;Laerm;51039;49.696;10.808;2023-11-22T02:53:03;42.96;41.66;44.23;;
64077;Laerm;51039;49.696;10.808;2023-11-22T02:55:29;42.99;41.49;44.15;;
64077;Laerm;51039;49.696;10.808;2023-11-22T02:57:54;42.98;41.75;44.00;;
64077;Laerm;51039;49.696;10.808;2023-11-22T03:00:20;42.99;41.75;44.25;;
64077;Laerm;51039;49.696;10.808;2023-11-22T03:02:46;42.98;41.74;44.03;;
64077;Laerm;51039;49.696;10.808;2023-11-22T03:05:13;42.99;41.59;44.10;;
64077;Laerm;51039;49.696;10.808;2023-11-22T03:07:43;43.01;41.78;44.31;;
64077;Laerm;51039;49.696;10.808;2023-11-22T03:10:08;43.03;41.81;44.08;;
64077;Laerm;51039;49.696;10.808;2023-11-22T03:12:35;43.04;41.84;44.15;;
64077;Laerm;51039;49.696;10.808;2023-11-22T03:15:19;43.03;41.75;44.18;;
64077;Laerm;51039;49.696;10.808;2023-11-22T03:17:44;43.03;41.64;44.16;;
64077;Laerm;51039;49.696;10.808;2023-11-22T03:20:10;43.00;41.82;44.19;;
64077;Laerm;51039;49.696;10.808;2023-11-22T03:22:36;42.99;41.86;44.15;;
64077;Laerm;51039;49.696;10.808;2023-11-22T03:25:03;42.98;41.82;44.15;;
64077;Laerm;51039;49.696;10.808;2023-11-22T03:27:29;42.96;41.78;44.00;;
64077;Laerm;51039;49.696;10.808;2023-11-22T03:29:54;42.94;41.84;43.98;;
64077;Laerm;51039;49.696;10.808;2023-11-22T03:32:20;42.93;41.66;43.94;;
64077;Laerm;51039;49.696;10.808;2023-11-22T03:34:45;42.92;41.81;44.04;;
64077;Laerm;51039;49.696;10.808;2023-11-22T03:37:11;42.91;41.68;43.97;;
64077;Laerm;51039;49.696;10.808;2023-11-22T03:39:36;42.92;41.63;44.04;;
64077;Laerm;51039;49.696;10.808;2023-11-22T03:42:01;42.90;41.70;44.12;;
64077;Laerm;51039;49.696;10.808;2023-11-22T03:44:27;42.89;41.68;44.08;;
64077;Laerm;51039;49.696;10.808;2023-11-22T03:46:53;42.87;41.73;43.95;;
64077;Laerm;51039;49.696;10.808;2023-11-22T03:49:19;42.86;41.78;43.97;;
64077;Laerm;51039;49.696;10.808;2023-11-22T03:51:44;42.86;41.52;44.00;;
64077;Laerm;51039;49.696;10.808;2023-11-22T03:54:09;42.85;41.67;44.01;;
64077;Laerm;51039;49.696;10.808;2023-11-22T03:56:36;42.85;41.81;43.83;;
64077;Laerm;51039;49.696;10.808;2023-11-22T03:59:01;42.86;41.78;44.03;;
64077;Laerm;51039;49.696;10.808;2023-11-22T04:01:28;42.82;41.56;43.93;;
64077;Laerm;51039;49.696;10.808;2023-11-22T04:03:53;42.82;41.72;44.05;;
64077;Laerm;51039;49.696;10.808;2023-11-22T04:06:19;42.81;41.35;43.94;;
64077;Laerm;51039;49.696;10.808;2023-11-22T04:08:45;42.81;41.60;43.89;;
64077;Laerm;51039;49.696;10.808;2023-11-22T04:11:11;42.80;41.30;43.98;;
64077;Laerm;51039;49.696;10.808;2023-11-22T04:13:37;42.82;41.68;43.97;;
64077;Laerm;51039;49.696;10.808;2023-11-22T04:16:03;42.80;41.75;43.89;;
64077;Laerm;51039;49.696;10.808;2023-11-22T04:18:29;42.78;41.49;43.96;;
64077;Laerm;51039;49.696;10.808;2023-11-22T04:20:55;42.81;41.74;48.93;;
64077;Laerm;51039;49.696;10.808;2023-11-22T04:23:23;42.77;41.62;44.05;;
64077;Laerm;51039;49.696;10.808;2023-11-22T04:25:49;42.75;41.60;43.82;;
64077;Laerm;51039;49.696;10.808;2023-11-22T04:28:15;42.77;41.46;43.84;;
64077;Laerm;51039;49.696;10.808;2023-11-22T04:30:40;42.77;41.56;43.82;;
64077;Laerm;51039;49.696;10.808;2023-11-22T04:33:05;42.74;41.57;43.87;;
64077;Laerm;51039;49.696;10.808;2023-11-22T04:35:31;42.76;41.65;43.88;;
64077;Laerm;51039;49.696;10.808;2023-11-22T04:38:01;42.77;41.58;43.96;;
64077;Laerm;51039;49.696;10.808;2023-11-22T04:40:26;42.77;41.67;43.93;;
64077;Laerm;51039;49.696;10.808;2023-11-22T04:42:52;42.78;41.64;43.91;;
64077;Laerm;51039;49.696;10.808;2023-11-22T04:45:17;42.77;41.66;43.86;;
64077;Laerm;51039;49.696;10.808;2023-11-22T04:47:42;42.78;41.37;43.91;;
64077;Laerm;51039;49.696;10.808;2023-11-22T04:50:08;42.77;41.61;43.80;;
64077;Laerm;51039;49.696;10.808;2023-11-22T04:52:34;42.78;41.69;43.82;;
64077;Laerm;51039;49.696;10.808;2023-11-22T04:55:00;42.79;41.68;44.03;;
64077;Laerm;51039;49.696;10.808;2023-11-22T04:57:26;42.77;41.65;43.97;;
64077;Laerm;51039;49.696;10.808;2023-11-22T04:59:51;42.76;41.38;43.83;;
64077;Laerm;51039;49.696;10.808;2023-11-22T05:02:17;42.72;41.55;43.86;;
64077;Laerm;51039;49.696;10.808;2023-11-22T05:04:43;42.70;41.45;43.78;;
64077;Laerm;51039;49.696;10.808;2023-11-22T05:07:09;42.74;41.54;43.86;;
64077;Laerm;51039;49.696;10.808;2023-11-22T05:09:34;42.71;41.45;43.78;;
64077;Laerm;51039;49.696;10.808;2023-11-22T05:11:59;42.71;41.54;43.83;;
64077;Laerm;51039;49.696;10.808;2023-11-22T05:14:25;42.71;41.24;43.77;;
64077;Laerm;51039;49.696;10.808;2023-11-22T05:16:51;42.73;41.51;44.02;;
64077;Laerm;51039;49.696;10.808;2023-11-22T05:19:17;42.77;41.59;43.95;;
64077;Laerm;51039;49.696;10.808;2023-11-22T05:21:42;42.78;41.54;43.83;;
64077;Laerm;51039;49.696;10.808;2023-11-22T05:24:08;42.79;41.73;43.93;;
64077;Laerm;51039;49.696;10.808;2023-11-22T05:26:34;42.76;41.55;43.77;;
64077;Laerm;51039;49.696;10.808;2023-11-22T05:28:59;42.75;41.39;43.99;;
64077;Laerm;51039;49.696;10.808;2023-11-22T05:31:24;42.73;41.62;43.76;;
64077;Laerm;51039;49.696;10.808;2023-11-22T05:33:50;42.72;41.36;43.78;;
64077;Laerm;51039;49.696;10.808;2023-11-22T05:36:15;42.72;41.60;43.76;;
64077;Laerm;51039;49.696;10.808;2023-11-22T05:38:42;42.73;41.63;43.77;;
64077;Laerm;51039;49.696;10.808;2023-11-22T05:41:07;42.73;41.46;43.82;;
64077;Laerm;51039;49.696;10.808;2023-11-22T05:43:33;42.73;41.41;43.80;;
64077;Laerm;51039;49.696;10.808;2023-11-22T05:46:01;42.72;41.57;43.87;;
64077;Laerm;51039;49.696;10.808;2023-11-22T05:48:27;42.72;41.46;43.86;;
64077;Laerm;51039;49.696;10.808;2023-11-22T05:50:52;42.74;41.49;43.97;;
64077;Laerm;51039;49.696;10.808;2023-11-22T05:53:18;42.74;41.60;43.81;;
64077;Laerm;51039;49.696;10.808;2023-11-22T05:55:49;42.75;41.56;44.01;;
64077;Laerm;51039;49.696;10.808;2023-11-22T05:58:15;42.75;41.56;43.96;;
64077;Laerm;51039;49.696;10.808;2023-11-22T06:00:45;42.77;41.61;43.86;;
64077;Laerm;51039;49.696;10.808;2023-11-22T06:03:11;42.79;41.41;43.87;;
64077;Laerm;51039;49.696;10.808;2023-11-22T06:05:38;42.79;41.76;43.87;;
64077;Laerm;51039;49.696;10.808;2023-11-22T06:08:03;42.79;41.51;43.91;;
64077;Laerm;51039;49.696;10.808;2023-11-22T06:10:30;42.83;41.74;43.83;;
64077;Laerm;51039;49.696;10.808;2023-11-22T06:12:55;42.86;41.69;44.12;;
64077;Laerm;51039;49.696;10.808;2023-11-22T06:15:20;42.88;41.78;43.94;;
64077;Laerm;51039;49.696;10.808;2023-11-22T06:17:47;42.88;41.60;43.93;;
64077;Laerm;51039;49.696;10.808;2023-11-22T06:20:14;42.87;41.67;44.15;;
64077;Laerm;51039;49.696;10.808;2023-11-22T06:22:39;42.83;41.63;44.25;;
64077;Laerm;51039;49.696;10.808;2023-11-22T06:25:08;42.85;41.61;43.90;;
64077;Laerm;51039;49.696;10.808;2023-11-22T06:27:34;42.89;41.85;44.04;;
64077;Laerm;51039;49.696;10.808;2023-11-22T06:30:00;42.91;41.48;44.00;;
64077;Laerm;51039;49.696;10.808;2023-11-22T06:32:25;42.95;41.42;44.10;;
64077;Laerm;51039;49.696;10.808;2023-11-22T06:34:50;42.96;41.79;44.03;;
64077;Laerm;51039;49.696;10.808;2023-11-22T06:37:16;42.95;41.69;44.08;;
64077;Laerm;51039;49.696;10.808;2023-11-22T06:39:42;42.96;41.77;43.98;;
64077;Laerm;51039;49.696;10.808;2023-11-22T06:42:07;42.95;41.59;44.16;;
64077;Laerm;51039;49.696;10.808;2023-11-22T06:44:33;42.91;41.75;44.10;;
64077;Laerm;51039;49.696;10.808;2023-11-22T06:46:59;42.91;41.67;44.09;;
64077;Laerm;51039;49.696;10.808;2023-11-22T06:49:24;42.92;41.83;44.04;;
64077;Laerm;51039;49.696;10.808;2023-11-22T06:51:50;42.92;41.67;44.21;;
64077;Laerm;51039;49.696;10.808;2023-11-22T06:54:18;42.90;41.69;44.04;;
64077;Laerm;51039;49.696;10.808;2023-11-22T06:56:44;42.86;41.70;43.99;;
64077;Laerm;51039;49.696;10.808;2023-11-22T06:59:10;42.86;41.73;44.05;;
64077;Laerm;51039;49.696;10.808;2023-11-22T07:01:36;42.81;41.66;43.97;;
64077;Laerm;51039;49.696;10.808;2023-11-22T07:04:01;42.76;41.63;43.95;;
64077;Laerm;51039;49.696;10.808;2023-11-22T07:06:29;42.75;41.56;44.25;;
64077;Laerm;51039;49.696;10.808;2023-11-22T07:08:54;42.74;41.48;43.71;;
64077;Laerm;51039;49.696;10.808;2023-11-22T07:11:23;42.70;41.49;43.77;;
64077;Laerm;51039;49.696;10.808;2023-11-22T07:13:48;42.68;41.49;43.64;;
64077;Laerm;51039;49.696;10.808;2023-11-22T07:16:14;42.66;41.60;43.87;;
64077;Laerm;51039;49.696;10.808;2023-11-22T07:18:40;42.65;41.49;43.70;;
64077;Laerm;51039;49.696;10.808;2023-11-22T07:21:06;42.61;41.40;43.71;;
64077;Laerm;51039;49.696;10.808;2023-11-22T07:23:31;42.60;41.38;43.85;;
64077;Laerm;51039;49.696;10.808;2023-11-22T07:25:56;42.62;41.47;43.72;;
64077;Laerm;51039;49.696;10.808;2023-11-22T07:28:22;42.65;41.50;43.89;;
64077;Laerm;51039;49.696;10.808;2023-11-22T07:30:48;42.65;41.47;43.71;;
64077;Laerm;51039;49.696;10.808;2023-11-22T07:33:14;42.63;41.43;43.78;;
64077;Laerm;51039;49.696;10.808;2023-11-22T07:35:40;42.67;41.29;43.82;;
64077;Laerm;51039;49.696;10.808;2023-11-22T07:38:06;42.68;41.57;43.85;;
64077;Laerm;51039;49.696;10.808;2023-11-22T07:40:34;42.65;41.30;43.75;;
64077;Laerm;51039;49.696;10.808;2023-11-22T07:42:59;42.66;41.44;43.87;;
64077;Laerm;51039;49.696;10.808;2023-11-22T07:45:25;42.67;41.54;43.75;;
64077;Laerm;51039;49.696;10.808;2023-11-22T07:47:50;42.67;41.40;43.75;;
64077;Laerm;51039;49.696;10.808;2023-11-22T07:50:18;42.72;41.58;43.78;;
64077;Laerm;51039;49.696;10.808;2023-11-22T07:52:45;42.76;41.48;43.81;;
64077;Laerm;51039;49.696;10.808;2023-11-22T07:55:10;42.77;41.52;43.78;;
64077;Laerm;51039;49.696;10.808;2023-11-22T07:57:37;42.81;41.74;43.91;;
64077;Laerm;51039;49.696;10.808;2023-11-22T08:00:04;42.83;41.58;43.89;;
64077;Laerm;51039;49.696;10.808;2023-11-22T08:02:33;42.80;41.67;43.92;;
64077;Laerm;51039;49.696;10.808;2023-11-22T08:04:58;42.85;41.50;43.92;;
64077;Laerm;51039;49.696;10.808;2023-11-22T08:07:27;42.88;41.67;43.94;;
64077;Laerm;51039;49.696;10.808;2023-11-22T08:09:53;42.96;41.65;44.03;;
64077;Laerm;51039;49.696;10.808;2023-11-22T08:12:19;43.03;42.03;44.03;;
64077;Laerm;51039;49.696;10.808;2023-11-22T08:14:44;43.06;41.85;44.20;;
64077;Laerm;51039;49.696;10.808;2023-11-22T08:17:10;43.06;41.82;44.09;;
64077;Laerm;51039;49.696;10.808;2023-11-22T08:19:38;43.08;41.92;44.26;;
64077;Laerm;51039;49.696;10.808;2023-11-22T08:22:05;43.10;41.92;44.22;;
64077;Laerm;51039;49.696;10.808;2023-11-22T08:24:30;43.12;41.94;44.35;;
64077;Laerm;51039;49.696;10.808;2023-11-22T08:26:55;43.13;41.70;44.22;;
64077;Laerm;51039;49.696;10.808;2023-11-22T08:29:21;43.13;42.00;44.16;;
64077;Laerm;51039;49.696;10.808;2023-11-22T08:31:48;43.14;41.69;44.18;;
64077;Laerm;51039;49.696;10.808;2023-11-22T08:34:16;43.17;41.77;44.35;;
64077;Laerm;51039;49.696;10.808;2023-11-22T08:36:42;43.22;42.18;44.32;;
64077;Laerm;51039;49.696;10.808;2023-11-22T08:39:08;43.25;41.98;44.27;;
64077;Laerm;51039;49.696;10.808;2023-11-22T08:41:33;43.25;42.12;44.28;;
64077;Laerm;51039;49.696;10.808;2023-11-22T08:43:59;43.30;42.17;44.28;;
64077;Laerm;51039;49.696;10.808;2023-11-22T08:46:25;43.33;42.23;44.45;;
64077;Laerm;51039;49.696;10.808;2023-11-22T08:48:51;43.33;41.63;44.48;;
64077;Laerm;51039;49.696;10.808;2023-11-22T08:51:17;43.33;42.16;44.44;;
64077;Laerm;51039;49.696;10.808;2023-11-22T08:53:43;43.33;42.17;44.55;;
64077;Laerm;51039;49.696;10.808;2023-11-22T08:56:11;43.31;42.01;44.43;;
64077;Laerm;51039;49.696;10.808;2023-11-22T08:58:39;43.33;42.22;44.48;;
64077;Laerm;51039;49.696;10.808;2023-11-22T09:01:06;43.36;42.14;44.58;;
64077;Laerm;51039;49.696;10.808;2023-11-22T09:03:32;43.37;42.33;44.44;;
64077;Laerm;51039;49.696;10.808;2023-11-22T09:05:58;43.38;42.11;44.47;;
64077;Laerm;51039;49.696;10.808;2023-11-22T09:08:23;43.41;42.30;44.62;;
64077;Laerm;51039;49.696;10.808;2023-11-22T09:10:49;43.42;42.13;44.40;;
64077;Laerm;51039;49.696;10.808;2023-11-22T09:13:16;43.43;42.25;44.54;;
64077;Laerm;51039;49.696;10.808;2023-11-22T09:15:42;43.41;42.28;44.40;;
64077;Laerm;51039;49.696;10.808;2023-11-22T09:18:09;43.46;42.30;44.58;;
64077;Laerm;51039;49.696;10.808;2023-11-22T09:20:35;43.45;42.22;44.68;;
64077;Laerm;51039;49.696;10.808;2023-11-22T09:23:00;43.46;42.26;44.53;;
64077;Laerm;51039;49.696;10.808;2023-11-22T09:25:26;43.45;42.20;44.54;;
64077;Laerm;51039;49.696;10.808;2023-11-22T09:27:56;43.45;42.27;44.72;;
64077;Laerm;51039;49.696;10.808;2023-11-22T09:30:25;43.47;42.31;44.65;;
64077;Laerm;51039;49.696;10.808;2023-11-22T09:33:14;43.48;42.26;44.69;;
64077;Laerm;51039;49.696;10.808;2023-11-22T09:35:42;43.47;42.37;44.59;;
64077;Laerm;51039;49.696;10.808;2023-11-22T09:38:09;43.48;42.23;44.60;;
64077;Laerm;51039;49.696;10.808;2023-11-22T09:40:46;43.48;42.42;44.80;;
64077;Laerm;51039;49.696;10.808;2023-11-22T09:43:13;43.49;42.40;44.78;;
64077;Laerm;51039;49.696;10.808;2023-11-22T09:45:43;43.48;42.15;44.63;;
64077;Laerm;51039;49.696;10.808;2023-11-22T09:53:33;43.49;42.27;44.86;;
64077;Laerm;51039;49.696;10.808;2023-11-22T09:56:02;43.49;42.25;44.71;;
64077;Laerm;51039;49.696;10.808;2023-11-22T09:58:33;43.49;42.14;44.63;;
64077;Laerm;51039;49.696;10.808;2023-11-22T10:01:02;43.49;42.32;44.54;;
64077;Laerm;51039;49.696;10.808;2023-11-22T10:03:28;43.48;42.29;44.56;;
64077;Laerm;51039;49.696;10.808;2023-11-22T10:05:56;43.49;42.20;44.60;;
64077;Laerm;51039;49.696;10.808;2023-11-22T10:08:23;43.48;42.38;44.59;;
64077;Laerm;51039;49.696;10.808;2023-11-22T10:10:49;43.48;42.13;44.51;;
64077;Laerm;51039;49.696;10.808;2023-11-22T10:13:17;43.49;42.37;44.63;;
64077;Laerm;51039;49.696;10.808;2023-11-22T10:15:48;43.50;42.47;44.66;;
64077;Laerm;51039;49.696;10.808;2023-11-22T10:18:14;43.50;42.29;44.68;;
64077;Laerm;51039;49.696;10.808;2023-11-22T10:20:41;43.49;42.26;44.64;;
64077;Laerm;51039;49.696;10.808;2023-11-22T10:23:16;43.49;42.35;44.62;;
64077;Laerm;51039;49.696;10.808;2023-11-22T10:25:47;43.48;42.20;44.64;;
64077;Laerm;51039;49.696;10.808;2023-11-22T10:28:15;43.49;42.40;44.58;;
64077;Laerm;51039;49.696;10.808;2023-11-22T10:30:43;43.51;42.11;44.67;;
64077;Laerm;51039;49.696;10.808;2023-11-22T10:33:10;43.52;42.13;44.70;;
64077;Laerm;51039;49.696;10.808;2023-11-22T10:35:39;43.53;42.28;44.59;;
64077;Laerm;51039;49.696;10.808;2023-11-22T10:38:08;43.53;42.24;44.68;;
64077;Laerm;51039;49.696;10.808;2023-11-22T10:40:34;43.55;42.39;44.78;;
64077;Laerm;51039;49.696;10.808;2023-11-22T10:43:01;43.55;42.38;44.72;;
64077;Laerm;51039;49.696;10.808;2023-11-22T10:45:29;43.53;42.37;44.63;;
64077;Laerm;51039;49.696;10.808;2023-11-22T10:47:56;43.53;42.34;44.70;;
64077;Laerm;51039;49.696;10.808;2023-11-22T10:50:22;43.53;42.42;44.64;;
64077;Laerm;51039;49.696;10.808;2023-11-22T10:52:51;43.48;42.32;44.76;;
64077;Laerm;51039;49.696;10.808;2023-11-22T10:55:21;43.52;42.23;44.59;;
64077;Laerm;51039;49.696;10.808;2023-11-22T10:57:51;43.53;42.40;44.56;;
64077;Laerm;51039;49.696;10.808;2023-11-22T11:00:19;43.54;42.34;44.64;;
64077;Laerm;51039;49.696;10.808;2023-11-22T11:02:51;43.55;42.45;44.72;;
64077;Laerm;51039;49.696;10.808;2023-11-22T11:05:20;43.58;42.24;44.81;;
64077;Laerm;51039;49.696;10.808;2023-11-22T11:07:56;43.55;42.21;44.66;;
64077;Laerm;51039;49.696;10.808;2023-11-22T11:10:23;43.55;42.39;44.65;;
64077;Laerm;51039;49.696;10.808;2023-11-22T11:12:48;43.60;42.33;44.98;;
64077;Laerm;51039;49.696;10.808;2023-11-22T11:15:15;43.64;42.48;44.75;;
64077;Laerm;51039;49.696;10.808;2023-11-22T11:17:43;43.62;42.41;44.73;;
64077;Laerm;51039;49.696;10.808;2023-11-22T11:20:10;43.60;42.31;44.63;;
64077;Laerm;51039;49.696;10.808;2023-11-22T11:22:38;43.60;42.35;44.67;;
64077;Laerm;51039;49.696;10.808;2023-11-22T11:25:04;43.59;42.30;44.66;;
64077;Laerm;51039;49.696;10.808;2023-11-22T11:27:33;43.60;42.35;44.87;;
64077;Laerm;51039;49.696;10.808;2023-11-22T11:30:01;43.60;42.20;44.65;;
64077;Laerm;51039;49.696;10.808;2023-11-22T11:32:46;43.58;42.22;44.63;;
64077;Laerm;51039;49.696;10.808;2023-11-22T11:35:11;43.63;42.50;44.62;;
64077;Laerm;51039;49.696;10.808;2023-11-22T11:37:37;43.62;42.46;44.70;;
64077;Laerm;51039;49.696;10.808;2023-11-22T11:40:40;43.61;42.44;44.67;;
64077;Laerm;51039;49.696;10.808;2023-11-22T11:43:06;43.63;42.49;44.68;;
64077;Laerm;51039;49.696;10.808;2023-11-22T11:45:37;43.64;42.44;44.74;;
64077;Laerm;51039;49.696;10.808;2023-11-22T11:48:04;43.63;42.47;44.71;;
64077;Laerm;51039;49.696;10.808;2023-11-22T11:50:30;43.63;42.52;44.79;;
64077;Laerm;51039;49.696;10.808;2023-11-22T11:52:56;43.63;42.48;44.93;;
64077;Laerm;51039;49.696;10.808;2023-11-22T11:55:21;43.64;42.22;44.75;;
64077;Laerm;51039;49.696;10.808;2023-11-22T11:57:47;43.65;42.45;44.73;;
64077;Laerm;51039;49.696;10.808;2023-11-22T12:00:13;43.62;42.07;44.68;;
64077;Laerm;51039;49.696;10.808;2023-11-22T12:02:39;43.65;42.29;44.76;;
64077;Laerm;51039;49.696;10.808;2023-11-22T12:05:06;43.65;42.43;44.80;;
64077;Laerm;51039;49.696;10.808;2023-11-22T12:07:37;43.65;42.37;44.74;;
64077;Laerm;51039;49.696;10.808;2023-11-22T12:10:03;43.64;42.54;44.69;;
64077;Laerm;51039;49.696;10.808;2023-11-22T12:12:31;43.65;42.52;44.71;;
64077;Laerm;51039;49.696;10.808;2023-11-22T12:14:57;43.65;42.22;44.75;;
64077;Laerm;51039;49.696;10.808;2023-11-22T12:17:22;43.64;42.33;44.78;;
64077;Laerm;51039;49.696;10.808;2023-11-22T12:19:48;43.63;42.52;44.64;;
64077;Laerm;51039;49.696;10.808;2023-11-22T12:22:14;43.65;42.24;44.77;;
64077;Laerm;51039;49.696;10.808;2023-11-22T12:24:42;43.63;42.36;44.71;;
64077;Laerm;51039;49.696;10.808;2023-11-22T12:27:11;43.66;42.22;44.81;;
64077;Laerm;51039;49.696;10.808;2023-11-22T12:29:37;43.65;42.59;44.73;;
64077;Laerm;51039;49.696;10.808;2023-11-22T12:32:03;43.64;42.49;44.84;;
64077;Laerm;51039;49.696;10.808;2023-11-22T12:34:28;43.63;42.33;44.71;;
64077;Laerm;51039;49.696;10.808;2023-11-22T12:36:56;43.65;42.41;44.71;;
64077;Laerm;51039;49.696;10.808;2023-11-22T12:39:21;43.65;42.49;44.80;;
64077;Laerm;51039;49.696;10.808;2023-11-22T12:41:49;43.65;42.40;44.82;;
64077;Laerm;51039;49.696;10.808;2023-11-22T12:44:16;43.65;42.32;44.99;;
64077;Laerm;51039;49.696;10.808;2023-11-22T12:46:45;43.67;42.15;44.90;;
64077;Laerm;51039;49.696;10.808;2023-11-22T12:49:11;43.69;42.53;44.80;;
64077;Laerm;51039;49.696;10.808;2023-11-22T12:51:37;43.69;42.57;44.85;;
64077;Laerm;51039;49.696;10.808;2023-11-22T12:54:03;43.71;42.60;44.84;;
64077;Laerm;51039;49.696;10.808;2023-11-22T12:56:28;43.72;42.43;44.97;;
64077;Laerm;51039;49.696;10.808;2023-11-22T12:58:54;43.69;42.65;44.80;;
64077;Laerm;51039;49.696;10.808;2023-11-22T13:01:19;43.68;42.42;44.73;;
64077;Laerm;51039;49.696;10.808;2023-11-22T13:03:45;43.68;42.48;44.83;;
64077;Laerm;51039;49.696;10.808;2023-11-22T13:06:11;43.66;42.36;44.74;;
64077;Laerm;51039;49.696;10.808;2023-11-22T13:08:36;43.68;42.48;44.89;;
64077;Laerm;51039;49.696;10.808;2023-11-22T13:11:01;43.69;42.44;44.66;;
64077;Laerm;51039;49.696;10.808;2023-11-22T13:13:27;43.69;42.41;44.96;;
64077;Laerm;51039;49.696;10.808;2023-11-22T13:15:53;43.66;42.58;44.81;;
64077;Laerm;51039;49.696;10.808;2023-11-22T13:18:19;43.67;42.53;44.98;;
64077;Laerm;51039;49.696;10.808;2023-11-22T13:20:45;43.68;42.44;44.69;;
64077;Laerm;51039;49.696;10.808;2023-11-22T13:23:11;43.69;42.38;44.81;;
64077;Laerm;51039;49.696;10.808;2023-11-22T13:25:37;43.71;42.53;44.88;;
64077;Laerm;51039;49.696;10.808;2023-11-22T13:28:03;43.71;42.31;44.85;;
64077;Laerm;51039;49.696;10.808;2023-11-22T13:30:30;43.75;42.51;44.86;;
64077;Laerm;51039;49.696;10.808;2023-11-22T13:32:55;43.73;42.47;44.89;;